createdAt,value
2018-09-04T00:00:16.420Z,16.5
2018-09-04T00:15:28.524Z,11.9
2018-09-04T00:30:28.321Z,15.6
2018-09-04T00:45:35.600Z,12.6
2018-09-04T01:05:47.930Z,16.8
2018-09-04T01:20:47.934Z,15.7
2018-09-04T01:56:00.223Z,11.9
2018-09-04T02:11:00.241Z,17.6
2018-09-04T02:26:12.569Z,14.3
2018-09-04T02:41:12.312Z,17.5
2018-09-04T03:01:13.437Z,14.6
2018-09-04T03:16:25.632Z,18.6
2018-09-04T03:51:25.659Z,16.9
2018-09-04T04:06:37.577Z,17.1
2018-09-04T04:21:37.566Z,15.7
2018-09-04T04:41:50.706Z,14.6
2018-09-04T04:56:50.585Z,12.5
2018-09-04T05:11:50.343Z,13.3
2018-09-04T05:27:03.842Z,13.1
2018-09-04T05:47:03.619Z,14.7
2018-09-04T06:02:03.627Z,16.2
2018-09-04T06:17:03.617Z,11.4
2018-09-04T06:37:04.673Z,17.9
2018-09-04T06:52:04.700Z,13.6
2018-09-04T07:07:04.481Z,13.4
2018-09-04T07:22:07.971Z,10
2018-09-04T07:42:19.894Z,9.4
2018-09-04T07:57:20.062Z,13.1
2018-09-04T08:12:34.847Z,9.3
2018-09-04T08:32:34.752Z,10.1
2018-09-04T08:47:36.029Z,8.3
2018-09-04T09:02:34.626Z,6.3
2018-09-04T09:22:49.127Z,6
2018-09-04T09:52:49.371Z,5.9
2018-09-04T10:43:04.266Z,5.9
2018-09-04T10:58:16.330Z,5.2
2018-09-04T11:18:16.540Z,3.5
2018-09-04T11:33:19.058Z,10.8
2018-09-04T11:48:29.391Z,8.9
2018-09-04T12:03:29.648Z,7.2
2018-09-04T12:23:45.366Z,7.7
2018-09-04T12:38:42.644Z,2.2
2018-09-04T12:53:42.777Z,1.9
2018-09-04T13:13:55.484Z,3.6
2018-09-04T13:28:55.784Z,4.4
2018-09-04T13:43:55.684Z,3.6
2018-09-04T14:34:05.382Z,3.5
2018-09-04T14:49:05.191Z,3.3
2018-09-04T15:09:18.219Z,4.4
2018-09-04T15:24:18.130Z,6.1
2018-09-04T15:39:18.192Z,6.1
2018-09-04T15:59:18.170Z,5.5
2018-09-04T16:14:31.491Z,6.8
2018-09-04T16:29:31.281Z,5.4
2018-09-04T17:04:42.761Z,6.3
2018-09-04T17:19:42.782Z,5.8
2018-09-04T17:34:48.322Z,6.5
2018-09-04T17:55:02.394Z,6.1
2018-09-04T18:10:02.358Z,6
2018-09-04T18:25:04.119Z,6.4
2018-09-04T18:45:20.970Z,7.1
2018-09-04T19:00:21.046Z,5.9
2018-09-04T19:15:37.305Z,5.2
2018-09-04T19:30:36.830Z,5.7
2018-09-04T19:50:37.903Z,5.6
2018-09-04T20:05:49.537Z,8.5
2018-09-04T20:20:49.958Z,5.3
2018-09-04T20:40:55.225Z,9.6
2018-09-04T20:55:49.513Z,5.9
2018-09-04T21:26:03.278Z,7.9
2018-09-04T21:46:06.325Z,9
2018-09-04T22:01:18.925Z,10
2018-09-04T22:51:34.595Z,8.6
2018-09-04T23:41:48.022Z,9
2018-09-04T23:56:47.080Z,9.5
